createdAt,value
2018-12-10T00:01:21.515Z,6.06
2018-12-10T00:03:49.020Z,6.02
2018-12-10T00:06:16.461Z,6.00
2018-12-10T00:08:43.921Z,5.98
2018-12-10T00:11:11.385Z,5.90
2018-12-10T00:13:38.847Z,5.84
2018-12-10T00:16:06.292Z,5.80
2018-12-10T00:18:33.717Z,5.80
2018-12-10T00:21:01.223Z,5.80
2018-12-10T00:23:28.687Z,5.82
2018-12-10T00:25:56.109Z,5.84
2018-12-10T00:28:23.587Z,5.76
2018-12-10T00:30:51.056Z,5.74
2018-12-10T00:33:18.497Z,5.73
2018-12-10T00:35:45.923Z,5.77
2018-12-10T00:38:13.431Z,5.82
2018-12-10T00:40:40.837Z,5.90
2018-12-10T00:43:08.279Z,5.91
2018-12-10T00:45:35.800Z,5.99
2018-12-10T00:48:03.246Z,6.06
2018-12-10T00:50:31.023Z,6.13
2018-12-10T00:52:58.567Z,6.13
2018-12-10T00:55:26.024Z,6.14
2018-12-10T00:57:53.460Z,6.12
2018-12-10T01:00:20.927Z,6.10
2018-12-10T01:02:48.338Z,6.08
2018-12-10T01:05:15.781Z,6.04
2018-12-10T01:07:43.320Z,6.00
2018-12-10T01:10:10.751Z,5.95
2018-12-10T01:12:38.170Z,5.90
2018-12-10T01:15:05.679Z,5.82
2018-12-10T01:17:33.089Z,5.83
2018-12-10T01:20:00.610Z,5.78
2018-12-10T01:22:28.137Z,5.76
2018-12-10T01:24:55.574Z,5.77
2018-12-10T01:27:23.070Z,5.79
2018-12-10T01:29:50.528Z,5.81
2018-12-10T01:32:17.988Z,5.81
2018-12-10T01:34:45.483Z,5.82
2018-12-10T01:37:12.981Z,5.78
2018-12-10T01:39:40.463Z,5.74
2018-12-10T01:42:07.909Z,5.76
2018-12-10T01:44:35.357Z,5.75
2018-12-10T01:47:03.172Z,5.74
2018-12-10T01:49:30.692Z,5.73
2018-12-10T01:51:58.163Z,5.68
2018-12-10T01:54:25.607Z,5.60
2018-12-10T01:56:53.049Z,5.57
2018-12-10T01:59:20.605Z,5.54
2018-12-10T02:01:48.065Z,5.55
2018-12-10T02:04:15.529Z,5.55
2018-12-10T02:06:43.007Z,5.55
2018-12-10T02:09:10.434Z,5.54
2018-12-10T02:11:37.864Z,5.52
2018-12-10T02:14:05.274Z,5.50
2018-12-10T02:16:32.702Z,5.48
2018-12-10T02:19:00.183Z,5.48
2018-12-10T02:21:27.739Z,5.44
2018-12-10T02:23:55.211Z,5.46
2018-12-10T02:26:22.613Z,5.48
2018-12-10T02:28:55.583Z,5.53
2018-12-10T02:31:23.076Z,5.62
2018-12-10T02:33:50.552Z,5.65
2018-12-10T02:36:18.021Z,5.72
2018-12-10T02:38:45.478Z,5.77
2018-12-10T02:41:12.893Z,5.80
2018-12-10T02:43:40.336Z,5.75
2018-12-10T02:46:07.831Z,5.71
2018-12-10T02:48:35.294Z,5.68
2018-12-10T02:51:02.756Z,5.66
2018-12-10T02:53:30.192Z,5.64
2018-12-10T02:55:57.677Z,5.58
2018-12-10T02:58:25.085Z,5.58
2018-12-10T03:00:53.264Z,5.55
2018-12-10T03:03:20.683Z,5.53
2018-12-10T03:05:48.135Z,5.52
2018-12-10T03:08:15.871Z,5.46
2018-12-10T03:10:43.315Z,5.42
2018-12-10T03:13:10.774Z,5.41
2018-12-10T03:15:38.249Z,5.38
2018-12-10T03:18:05.701Z,5.33
2018-12-10T03:20:33.166Z,5.34
2018-12-10T03:23:00.588Z,5.32
2018-12-10T03:25:28.063Z,5.24
2018-12-10T03:27:55.489Z,5.24
2018-12-10T03:30:23.074Z,5.25
2018-12-10T03:32:50.542Z,5.20
2018-12-10T03:35:17.959Z,5.23
2018-12-10T03:37:45.461Z,5.20
2018-12-10T03:40:12.921Z,5.28
2018-12-10T03:42:40.479Z,5.35
2018-12-10T03:45:08.129Z,5.39
2018-12-10T03:47:35.595Z,5.40
2018-12-10T03:50:04.478Z,5.40
2018-12-10T03:52:31.929Z,5.44
2018-12-10T03:54:59.348Z,5.50
2018-12-10T03:57:26.776Z,5.45
2018-12-10T03:59:54.412Z,5.44
2018-12-10T04:02:21.878Z,5.42
2018-12-10T04:04:49.335Z,5.39
2018-12-10T04:07:16.784Z,5.30
2018-12-10T04:09:44.207Z,5.28
2018-12-10T04:12:11.797Z,5.27
2018-12-10T04:14:39.242Z,5.27
2018-12-10T04:17:06.679Z,5.31
2018-12-10T04:19:34.091Z,5.32
2018-12-10T04:22:01.539Z,5.33
2018-12-10T04:24:29.011Z,5.33
2018-12-10T04:26:56.510Z,5.30
2018-12-10T04:29:24.108Z,5.25
2018-12-10T04:31:51.537Z,5.16
2018-12-10T04:34:18.961Z,5.15
2018-12-10T04:36:46.473Z,5.14
2018-12-10T04:39:13.896Z,5.15
2018-12-10T04:41:41.335Z,5.09
2018-12-10T04:44:08.829Z,5.05
2018-12-10T04:46:36.256Z,5.08
2018-12-10T04:49:03.760Z,5.09
2018-12-10T04:51:31.229Z,5.09
2018-12-10T04:53:58.884Z,5.13
2018-12-10T04:56:26.444Z,5.18
2018-12-10T04:58:53.899Z,5.27
2018-12-10T05:01:21.335Z,5.30
2018-12-10T05:03:48.806Z,5.32
2018-12-10T05:06:16.250Z,5.41
2018-12-10T05:08:44.035Z,5.39
2018-12-10T05:11:11.461Z,5.43
2018-12-10T05:13:38.933Z,5.53
2018-12-10T05:16:06.392Z,5.60
2018-12-10T05:18:33.864Z,5.62
2018-12-10T05:21:01.274Z,5.55
2018-12-10T05:23:28.717Z,5.53
2018-12-10T05:25:56.141Z,5.50
2018-12-10T05:28:23.546Z,5.35
2018-12-10T05:30:51.049Z,5.24
2018-12-10T05:33:18.470Z,5.16
2018-12-10T05:35:45.937Z,5.12
2018-12-10T05:38:13.345Z,5.07
2018-12-10T05:40:40.843Z,5.06
2018-12-10T05:43:08.341Z,5.02
2018-12-10T05:45:35.779Z,4.99
2018-12-10T05:48:03.247Z,4.93
2018-12-10T05:50:30.698Z,4.91
2018-12-10T05:52:58.117Z,4.91
2018-12-10T05:55:25.601Z,4.92
2018-12-10T05:57:53.063Z,4.91
2018-12-10T06:00:20.505Z,4.92
2018-12-10T06:02:47.982Z,4.90
2018-12-10T06:05:15.420Z,4.86
2018-12-10T06:07:42.880Z,4.86
2018-12-10T06:10:10.319Z,4.86
2018-12-10T06:12:37.743Z,4.85
2018-12-10T06:15:05.238Z,4.82
2018-12-10T06:17:32.724Z,4.79
2018-12-10T06:20:00.149Z,4.76
2018-12-10T06:22:27.630Z,4.73
2018-12-10T06:24:55.095Z,4.77
2018-12-10T06:27:22.655Z,4.85
2018-12-10T06:29:50.091Z,4.94
2018-12-10T06:32:17.535Z,5.02
2018-12-10T06:34:45.232Z,5.04
2018-12-10T06:37:12.676Z,5.08
2018-12-10T06:39:40.113Z,5.07
2018-12-10T06:42:08.367Z,5.06
2018-12-10T06:44:35.977Z,5.03
2018-12-10T06:47:03.506Z,5.03
2018-12-10T06:49:30.984Z,5.00
2018-12-10T06:51:58.501Z,4.99
2018-12-10T06:54:26.012Z,4.96
2018-12-10T06:56:53.453Z,4.93
2018-12-10T06:59:20.875Z,4.87
2018-12-10T07:01:48.365Z,4.86
2018-12-10T07:04:15.842Z,4.84
2018-12-10T07:06:43.296Z,4.82
2018-12-10T07:09:10.727Z,4.80
2018-12-10T07:11:38.162Z,4.76
2018-12-10T07:14:05.585Z,4.76
2018-12-10T07:16:33.137Z,4.74
2018-12-10T07:19:00.680Z,4.72
2018-12-10T07:21:28.120Z,4.67
2018-12-10T07:23:55.602Z,4.68
2018-12-10T07:26:23.037Z,4.68
2018-12-10T07:28:50.503Z,4.70
2018-12-10T07:31:17.927Z,4.68
2018-12-10T07:33:45.339Z,4.70
2018-12-10T07:36:13.723Z,4.74
2018-12-10T07:38:41.155Z,4.77
2018-12-10T07:41:08.626Z,4.85
2018-12-10T07:43:36.034Z,4.95
2018-12-10T07:46:03.546Z,5.05
2018-12-10T07:48:30.987Z,5.09
2018-12-10T07:50:58.457Z,5.15
2018-12-10T07:53:25.998Z,5.20
2018-12-10T07:55:53.406Z,5.26
2018-12-10T07:58:20.833Z,5.31
2018-12-10T08:00:48.268Z,5.37
2018-12-10T08:03:15.695Z,5.40
2018-12-10T08:05:43.174Z,5.43
2018-12-10T08:08:10.659Z,5.50
2018-12-10T08:10:38.084Z,5.58
2018-12-10T08:13:05.562Z,5.63
2018-12-10T08:15:33.016Z,5.68
2018-12-10T08:18:00.461Z,5.71
2018-12-10T08:20:27.893Z,5.68
2018-12-10T08:22:55.365Z,5.69
2018-12-10T08:25:23.304Z,5.71
2018-12-10T08:27:50.968Z,5.71
2018-12-10T08:30:18.431Z,5.71
2018-12-10T08:32:45.913Z,5.75
2018-12-10T08:35:13.392Z,5.78
2018-12-10T08:37:40.843Z,5.77
2018-12-10T08:40:08.404Z,5.67
2018-12-10T08:42:35.805Z,5.61
2018-12-10T08:45:04.019Z,5.51
2018-12-10T08:47:31.496Z,5.52
2018-12-10T08:49:58.943Z,5.61
2018-12-10T08:52:26.405Z,5.65
2018-12-10T08:54:53.971Z,5.68
2018-12-10T08:57:21.400Z,5.64
2018-12-10T08:59:48.861Z,5.55
2018-12-10T09:02:16.295Z,5.51
2018-12-10T09:04:43.779Z,5.48
2018-12-10T09:07:11.333Z,5.45
2018-12-10T09:09:38.812Z,5.44
2018-12-10T09:12:06.366Z,5.38
2018-12-10T09:14:33.803Z,5.44
2018-12-10T09:17:01.219Z,5.44
2018-12-10T09:19:28.727Z,5.48
2018-12-10T09:21:56.161Z,5.51
2018-12-10T09:24:23.654Z,5.57
2018-12-10T09:26:51.314Z,5.63
2018-12-10T09:29:18.760Z,5.59
2018-12-10T09:31:46.226Z,5.66
2018-12-10T09:34:13.675Z,5.73
2018-12-10T09:36:41.243Z,5.73
2018-12-10T09:39:08.689Z,5.75
2018-12-10T09:41:36.164Z,5.80
2018-12-10T09:44:03.584Z,5.91
2018-12-10T09:46:31.052Z,5.99
2018-12-10T09:48:58.535Z,6.11
2018-12-10T09:51:25.983Z,6.26
2018-12-10T09:53:53.418Z,6.16
2018-12-10T09:56:20.827Z,6.20
2018-12-10T09:58:48.349Z,6.27
2018-12-10T10:01:15.812Z,6.35
2018-12-10T10:03:44.048Z,6.42
2018-12-10T10:06:11.513Z,6.50
2018-12-10T10:08:39.009Z,6.52
2018-12-10T10:11:06.431Z,6.48
2018-12-10T10:13:33.927Z,6.51
2018-12-10T10:16:01.358Z,6.57
2018-12-10T10:18:28.781Z,6.55
2018-12-10T10:22:25.960Z,6.66
2018-12-10T10:24:53.464Z,6.70
2018-12-10T10:27:20.877Z,6.72
2018-12-10T10:29:48.289Z,6.78
2018-12-10T10:32:15.827Z,6.66
2018-12-10T10:34:43.264Z,6.62
2018-12-10T10:37:10.693Z,6.59
2018-12-10T10:39:38.140Z,6.63
2018-12-10T10:42:05.549Z,6.59
2018-12-10T10:44:33.003Z,6.50
2018-12-10T10:47:00.409Z,6.49
2018-12-10T10:49:27.871Z,6.46
2018-12-10T10:51:55.366Z,6.44
2018-12-10T10:54:22.794Z,6.44
2018-12-10T10:56:50.215Z,6.44
2018-12-10T10:59:17.626Z,6.51
2018-12-10T11:01:50.769Z,6.55
2018-12-10T11:04:18.188Z,6.52
2018-12-10T11:06:45.624Z,6.52
2018-12-10T11:09:15.526Z,6.50
2018-12-10T11:11:42.533Z,6.47
2018-12-10T11:14:09.960Z,6.56
2018-12-10T11:16:37.386Z,6.61
2018-12-10T11:19:04.919Z,6.67
2018-12-10T11:21:32.403Z,6.72
2018-12-10T11:23:59.880Z,6.78
2018-12-10T11:26:27.315Z,6.86
2018-12-10T11:28:54.734Z,6.80
2018-12-10T11:31:22.174Z,6.64
2018-12-10T11:33:49.633Z,6.69
2018-12-10T11:36:17.165Z,6.70
2018-12-10T11:38:44.573Z,6.67
2018-12-10T11:41:12.022Z,6.67
2018-12-10T11:43:39.532Z,6.66
2018-12-10T11:46:06.993Z,6.68
2018-12-10T11:48:34.449Z,6.70
2018-12-10T11:51:01.991Z,6.70
2018-12-10T11:53:29.595Z,6.84
2018-12-10T11:55:57.033Z,7.04
2018-12-10T11:58:24.444Z,7.14
2018-12-10T12:00:51.915Z,7.07
2018-12-10T12:03:19.421Z,7.08
2018-12-10T12:05:47.109Z,7.08
2018-12-10T12:08:14.745Z,7.00
2018-12-10T12:10:42.195Z,6.96
2018-12-10T12:13:09.641Z,6.88
2018-12-10T12:15:37.073Z,6.82
2018-12-10T12:18:04.559Z,6.89
2018-12-10T12:20:32.113Z,6.94
2018-12-10T12:22:59.538Z,6.96
2018-12-10T12:25:26.952Z,6.97
2018-12-10T12:27:54.403Z,7.02
2018-12-10T12:30:21.840Z,7.10
2018-12-10T12:32:49.270Z,7.10
2018-12-10T12:35:16.761Z,7.10
2018-12-10T12:37:44.305Z,7.04
2018-12-10T12:40:11.816Z,6.99
2018-12-10T12:42:39.332Z,7.01
2018-12-10T12:45:06.799Z,6.95
2018-12-10T12:47:34.243Z,6.91
2018-12-10T12:50:01.676Z,6.77
2018-12-10T12:52:30.045Z,6.72
2018-12-10T12:54:57.448Z,6.83
2018-12-10T12:57:24.882Z,6.92
2018-12-10T12:59:52.352Z,6.91
2018-12-10T13:02:19.800Z,7.02
2018-12-10T13:04:47.288Z,7.14
2018-12-10T13:07:14.720Z,7.20
2018-12-10T13:09:42.148Z,7.23
2018-12-10T13:12:09.652Z,7.20
2018-12-10T13:14:37.107Z,7.14
2018-12-10T13:17:04.643Z,7.06
2018-12-10T13:19:32.080Z,7.13
2018-12-10T13:21:59.503Z,7.24
2018-12-10T13:24:26.925Z,7.33
2018-12-10T13:26:54.370Z,7.42
2018-12-10T13:29:21.782Z,7.40
2018-12-10T13:31:49.228Z,7.33
2018-12-10T13:34:16.653Z,7.27
2018-12-10T13:36:44.090Z,7.14
2018-12-10T13:39:11.668Z,7.08
2018-12-10T13:41:39.120Z,7.04
2018-12-10T13:44:06.535Z,6.97
2018-12-10T13:46:34.022Z,6.90
2018-12-10T13:49:01.495Z,6.92
2018-12-10T13:51:28.952Z,6.97
2018-12-10T13:53:56.368Z,7.04
2018-12-10T13:56:23.844Z,7.06
2018-12-10T13:58:51.248Z,7.05
2018-12-10T14:01:18.793Z,6.98
2018-12-10T14:03:46.669Z,7.00
2018-12-10T14:06:14.098Z,6.92
2018-12-10T14:08:41.538Z,6.83
2018-12-10T14:11:08.949Z,6.77
2018-12-10T14:13:36.400Z,6.72
2018-12-10T14:16:03.842Z,6.66
2018-12-10T14:18:31.368Z,6.63
2018-12-10T14:20:58.855Z,6.59
2018-12-10T14:23:26.436Z,6.58
2018-12-10T14:25:53.843Z,6.61
2018-12-10T14:28:21.266Z,6.58
2018-12-10T14:30:48.840Z,6.58
2018-12-10T14:33:16.328Z,6.61
2018-12-10T14:35:43.901Z,6.61
2018-12-10T14:38:11.340Z,6.53
2018-12-10T14:40:38.798Z,6.40
2018-12-10T14:43:06.265Z,6.23
2018-12-10T14:45:33.683Z,6.03
2018-12-10T14:48:01.135Z,5.88
2018-12-10T14:50:28.533Z,5.78
2018-12-10T14:52:55.961Z,5.66
2018-12-10T14:55:23.548Z,5.57
2018-12-10T14:57:50.966Z,5.51
2018-12-10T15:00:18.390Z,5.43
2018-12-10T15:02:45.809Z,5.43
2018-12-10T15:05:13.380Z,5.38
2018-12-10T15:07:40.812Z,5.35
2018-12-10T15:10:08.297Z,5.29
2018-12-10T15:12:35.737Z,5.26
2018-12-10T15:15:03.203Z,5.21
2018-12-10T15:17:30.632Z,5.23
2018-12-10T15:19:58.055Z,5.21
2018-12-10T15:22:25.492Z,5.21
2018-12-10T15:24:52.908Z,5.20
2018-12-10T15:27:20.309Z,5.21
2018-12-10T15:29:47.904Z,5.23
2018-12-10T15:32:15.469Z,5.21
2018-12-10T15:34:42.896Z,5.13
2018-12-10T15:37:10.319Z,5.12
2018-12-10T15:39:37.762Z,5.13
2018-12-10T15:42:05.181Z,5.14
2018-12-10T15:44:32.614Z,5.11
2018-12-10T15:47:00.037Z,5.11
2018-12-10T15:49:27.469Z,5.12
2018-12-10T15:51:54.974Z,5.11
2018-12-10T15:54:22.501Z,5.05
2018-12-10T15:56:49.981Z,5.04
2018-12-10T15:59:17.424Z,5.03
2018-12-10T16:01:44.892Z,5.04
2018-12-10T16:04:12.325Z,5.09
2018-12-10T16:06:39.748Z,5.06
2018-12-10T16:09:07.258Z,5.05
2018-12-10T16:11:34.664Z,5.11
2018-12-10T16:14:02.162Z,5.09
2018-12-10T16:16:29.655Z,5.11
2018-12-10T16:18:57.077Z,5.11
2018-12-10T16:21:24.484Z,5.10
2018-12-10T16:23:51.997Z,5.06
2018-12-10T16:26:19.477Z,5.03
2018-12-10T16:28:46.911Z,5.00
2018-12-10T16:31:14.384Z,5.02
2018-12-10T16:33:41.821Z,5.01
2018-12-10T16:36:09.685Z,4.99
2018-12-10T16:38:37.123Z,4.96
2018-12-10T16:41:04.608Z,4.95
2018-12-10T16:43:32.076Z,4.90
2018-12-10T16:45:59.488Z,4.89
2018-12-10T16:48:26.914Z,4.89
2018-12-10T16:50:54.385Z,4.92
2018-12-10T16:53:21.887Z,4.94
2018-12-10T16:55:49.349Z,4.92
2018-12-10T16:58:16.821Z,4.89
2018-12-10T17:00:44.245Z,4.87
2018-12-10T17:03:11.698Z,4.89
2018-12-10T17:05:39.125Z,4.92
2018-12-10T17:08:06.551Z,4.94
2018-12-10T17:10:33.989Z,4.94
2018-12-10T17:13:01.456Z,5.01
2018-12-10T17:15:28.901Z,5.05
2018-12-10T17:17:56.311Z,5.09
2018-12-10T17:20:23.747Z,5.12
2018-12-10T17:22:51.168Z,5.14
2018-12-10T17:25:18.637Z,5.18
2018-12-10T17:27:46.057Z,5.22
2018-12-10T17:30:13.473Z,5.26
2018-12-10T17:32:40.885Z,5.27
2018-12-10T17:35:08.357Z,5.31
2018-12-10T17:37:35.769Z,5.29
2018-12-10T17:40:03.619Z,5.19
2018-12-10T17:42:31.129Z,5.21
2018-12-10T17:44:58.582Z,5.23
2018-12-10T17:47:25.999Z,5.27
2018-12-10T17:49:53.725Z,5.30
2018-12-10T17:52:21.133Z,5.31
2018-12-10T17:54:48.920Z,5.30
2018-12-10T17:57:16.495Z,5.30
2018-12-10T17:59:43.939Z,5.32
2018-12-10T18:02:11.361Z,5.30
2018-12-10T18:04:38.805Z,5.33
2018-12-10T18:07:06.206Z,5.33
2018-12-10T18:09:33.696Z,5.27
2018-12-10T18:12:01.200Z,5.23
2018-12-10T18:14:28.674Z,5.19
2018-12-10T18:16:56.140Z,5.18
2018-12-10T18:19:23.556Z,5.23
2018-12-10T18:21:51.076Z,5.20
2018-12-10T18:24:18.505Z,5.15
2018-12-10T18:26:45.968Z,5.13
2018-12-10T18:29:13.388Z,5.05
2018-12-10T18:31:40.822Z,5.03
2018-12-10T18:34:08.252Z,4.96
2018-12-10T18:36:35.703Z,4.95
2018-12-10T18:39:03.277Z,4.92
2018-12-10T18:41:30.692Z,4.93
2018-12-10T18:43:58.198Z,4.90
2018-12-10T18:46:25.616Z,4.88
2018-12-10T18:48:53.043Z,4.90
2018-12-10T18:51:20.475Z,4.91
2018-12-10T18:53:48.007Z,4.90
2018-12-10T18:56:15.553Z,4.90
2018-12-10T18:58:43.027Z,4.90
2018-12-10T19:01:10.482Z,4.87
2018-12-10T19:03:37.950Z,4.87
2018-12-10T19:06:05.388Z,4.89
2018-12-10T19:08:32.798Z,4.86
2018-12-10T19:11:00.223Z,4.82
2018-12-10T19:13:27.648Z,4.83
2018-12-10T19:15:55.434Z,4.90
2018-12-10T19:18:22.844Z,4.98
2018-12-10T19:20:50.348Z,4.99
2018-12-10T19:23:17.757Z,4.98
2018-12-10T19:25:45.227Z,4.94
2018-12-10T19:28:12.715Z,4.92
2018-12-10T19:30:40.174Z,4.93
2018-12-10T19:33:07.616Z,4.92
2018-12-10T19:35:35.040Z,4.90
2018-12-10T19:38:02.461Z,4.83
2018-12-10T19:40:29.881Z,4.80
2018-12-10T19:42:57.345Z,4.77
2018-12-10T19:45:24.822Z,4.77
2018-12-10T19:47:52.278Z,4.73
2018-12-10T19:50:19.801Z,4.72
2018-12-10T19:52:47.291Z,4.70
2018-12-10T19:55:14.726Z,4.72
2018-12-10T19:57:42.259Z,4.72
2018-12-10T20:00:09.743Z,4.73
2018-12-10T20:02:37.334Z,4.73
2018-12-10T20:05:06.065Z,4.80
2018-12-10T20:07:33.493Z,4.81
2018-12-10T20:10:00.917Z,4.82
2018-12-10T20:12:28.379Z,4.79
2018-12-10T20:14:55.831Z,4.78
2018-12-10T20:17:23.271Z,4.74
2018-12-10T20:19:50.678Z,4.78
2018-12-10T20:22:18.117Z,4.88
2018-12-10T20:24:45.549Z,4.99
2018-12-10T20:27:12.987Z,5.02
2018-12-10T20:29:40.399Z,5.03
2018-12-10T20:32:07.844Z,5.06
2018-12-10T20:34:35.390Z,5.10
2018-12-10T20:37:02.849Z,5.04
2018-12-10T20:39:30.289Z,4.96
2018-12-10T20:41:57.727Z,4.83
2018-12-10T20:44:25.150Z,4.71
2018-12-10T20:46:52.629Z,4.69
2018-12-10T20:49:20.113Z,4.69
2018-12-10T20:51:47.547Z,4.67
2018-12-10T20:54:15.026Z,4.67
2018-12-10T20:56:42.495Z,4.64
2018-12-10T20:59:09.952Z,4.63
2018-12-10T21:01:37.415Z,4.59
2018-12-10T21:04:04.967Z,4.55
2018-12-10T21:06:34.766Z,4.54
2018-12-10T21:09:02.500Z,4.59
2018-12-10T21:11:29.907Z,4.64
2018-12-10T21:13:57.337Z,4.66
2018-12-10T21:16:24.802Z,4.66
2018-12-10T21:18:52.274Z,4.66
2018-12-10T21:21:19.838Z,4.63
2018-12-10T21:23:47.452Z,4.60
2018-12-10T21:26:14.951Z,4.53
2018-12-10T21:28:42.401Z,4.52
2018-12-10T21:31:09.823Z,4.53
2018-12-10T21:33:37.265Z,4.52
2018-12-10T21:36:04.678Z,4.53
2018-12-10T21:38:32.136Z,4.52
2018-12-10T21:40:59.560Z,4.50
2018-12-10T21:43:26.993Z,4.49
2018-12-10T21:45:54.420Z,4.48
2018-12-10T21:48:21.837Z,4.49
2018-12-10T21:50:49.270Z,4.53
2018-12-10T21:53:16.757Z,4.58
2018-12-10T21:55:44.191Z,4.63
2018-12-10T21:58:11.622Z,4.63
2018-12-10T22:00:39.126Z,4.66
2018-12-10T22:03:06.591Z,4.71
2018-12-10T22:05:34.005Z,4.75
2018-12-10T22:08:01.501Z,4.82
2018-12-10T22:10:28.947Z,4.85
2018-12-10T22:12:56.360Z,4.84
2018-12-10T22:15:23.787Z,4.87
2018-12-10T22:17:51.238Z,4.89
2018-12-10T22:20:18.665Z,4.89
2018-12-10T22:22:46.065Z,4.84
2018-12-10T22:25:13.621Z,4.80
2018-12-10T22:27:41.073Z,4.78
2018-12-10T22:30:08.619Z,4.79
2018-12-10T22:32:36.186Z,4.74
2018-12-10T22:35:03.931Z,4.74
2018-12-10T22:37:31.348Z,4.77
2018-12-10T22:39:58.789Z,4.78
2018-12-10T22:42:26.207Z,4.80
2018-12-10T22:44:53.677Z,4.84
2018-12-10T22:47:21.118Z,4.87
2018-12-10T22:49:48.587Z,4.87
2018-12-10T22:52:16.019Z,4.83
2018-12-10T22:54:43.495Z,4.82
2018-12-10T22:57:10.954Z,4.77
2018-12-10T22:59:38.385Z,4.74
2018-12-10T23:02:05.804Z,4.71
2018-12-10T23:04:33.273Z,4.69
2018-12-10T23:07:00.698Z,4.67
2018-12-10T23:09:28.188Z,4.63
2018-12-10T23:11:55.600Z,4.61
2018-12-10T23:14:23.062Z,4.64
2018-12-10T23:16:50.472Z,4.63
2018-12-10T23:19:17.896Z,4.63
2018-12-10T23:21:45.333Z,4.66
2018-12-10T23:24:12.783Z,4.70
2018-12-10T23:26:40.206Z,4.72
2018-12-10T23:29:07.641Z,4.69
2018-12-10T23:31:35.136Z,4.73
2018-12-10T23:34:02.549Z,4.78
2018-12-10T23:36:30.082Z,4.85
2018-12-10T23:38:57.571Z,4.91
2018-12-10T23:41:25.005Z,4.92
2018-12-10T23:43:52.444Z,4.96
2018-12-10T23:46:19.922Z,5.01
2018-12-10T23:48:47.348Z,5.03
2018-12-10T23:51:14.768Z,5.08
2018-12-10T23:53:42.189Z,5.14
2018-12-10T23:56:09.676Z,5.15
2018-12-10T23:58:37.090Z,5.12
